sensor_id;sensor_type;location;lat;lon;timestamp;temperature;humidity
72128;DHT22;60000;51.030;7.024;2023-09-30T00:01:08;12.46;89.82
72128;DHT22;60000;51.030;7.024;2023-09-30T00:03:34;12.39;89.68
72128;DHT22;60000;51.030;7.024;2023-09-30T00:06:00;12.36;89.92
72128;DHT22;60000;51.030;7.024;2023-09-30T00:08:25;12.33;89.88
72128;DHT22;60000;51.030;7.024;2023-09-30T00:10:50;12.33;89.97
72128;DHT22;60000;51.030;7.024;2023-09-30T00:13:18;12.30;89.93
72128;DHT22;60000;51.030;7.024;2023-09-30T00:15:43;12.26;90.01
72128;DHT22;60000;51.030;7.024;2023-09-30T00:18:08;12.22;89.88
72128;DHT22;60000;51.030;7.024;2023-09-30T00:20:34;12.19;90.03
72128;DHT22;60000;51.030;7.024;2023-09-30T00:23:00;12.14;89.88
72128;DHT22;60000;51.030;7.024;2023-09-30T00:25:25;12.09;90.07
72128;DHT22;60000;51.030;7.024;2023-09-30T00:27:50;12.09;90.28
72128;DHT22;60000;51.030;7.024;2023-09-30T00:30:16;12.09;90.41
72128;DHT22;60000;51.030;7.024;2023-09-30T00:32:42;12.09;90.62
72128;DHT22;60000;51.030;7.024;2023-09-30T00:35:07;12.12;90.75
72128;DHT22;60000;51.030;7.024;2023-09-30T00:37:39;12.11;90.77
72128;DHT22;60000;51.030;7.024;2023-09-30T00:40:06;12.11;90.98
72128;DHT22;60000;51.030;7.024;2023-09-30T00:42:32;12.15;91.04
72128;DHT22;60000;51.030;7.024;2023-09-30T00:44:58;12.18;91.13
72128;DHT22;60000;51.030;7.024;2023-09-30T00:47:23;12.18;90.99
72128;DHT22;60000;51.030;7.024;2023-09-30T00:49:50;12.16;91.07
72128;DHT22;60000;51.030;7.024;2023-09-30T00:52:16;12.15;91.22
72128;DHT22;60000;51.030;7.024;2023-09-30T00:54:43;12.19;91.25
72128;DHT22;60000;51.030;7.024;2023-09-30T00:57:09;12.18;91.12
72128;DHT22;60000;51.030;7.024;2023-09-30T00:59:35;12.16;91.21
72128;DHT22;60000;51.030;7.024;2023-09-30T01:02:01;12.16;91.14
72128;DHT22;60000;51.030;7.024;2023-09-30T01:04:27;12.14;91.04
72128;DHT22;60000;51.030;7.024;2023-09-30T01:06:53;12.18;91.25
72128;DHT22;60000;51.030;7.024;2023-09-30T01:09:20;12.12;91.05
72128;DHT22;60000;51.030;7.024;2023-09-30T01:11:45;12.15;91.22
72128;DHT22;60000;51.030;7.024;2023-09-30T01:14:30;12.14;91.14
72128;DHT22;60000;51.030;7.024;2023-09-30T01:16:56;12.12;91.05
72128;DHT22;60000;51.030;7.024;2023-09-30T01:19:22;12.11;91.10
72128;DHT22;60000;51.030;7.024;2023-09-30T01:21:49;12.09;91.09
72128;DHT22;60000;51.030;7.024;2023-09-30T01:24:15;12.09;91.09
72128;DHT22;60000;51.030;7.024;2023-09-30T01:26:40;12.06;91.13
72128;DHT22;60000;51.030;7.024;2023-09-30T01:29:08;12.05;91.07
72128;DHT22;60000;51.030;7.024;2023-09-30T01:31:36;12.05;91.11
72128;DHT22;60000;51.030;7.024;2023-09-30T01:34:02;12.04;91.09
72128;DHT22;60000;51.030;7.024;2023-09-30T01:36:27;12.02;91.09
72128;DHT22;60000;51.030;7.024;2023-09-30T01:38:53;12.01;91.09
72128;DHT22;60000;51.030;7.024;2023-09-30T01:41:19;11.98;90.98
72128;DHT22;60000;51.030;7.024;2023-09-30T01:43:44;11.99;91.01
72128;DHT22;60000;51.030;7.024;2023-09-30T01:46:09;11.95;91.05
72128;DHT22;60000;51.030;7.024;2023-09-30T01:48:35;11.98;91.21
72128;DHT22;60000;51.030;7.024;2023-09-30T01:51:00;11.99;91.25
72128;DHT22;60000;51.030;7.024;2023-09-30T01:53:26;11.97;91.38
72128;DHT22;60000;51.030;7.024;2023-09-30T01:55:51;11.98;91.30
72128;DHT22;60000;51.030;7.024;2023-09-30T01:58:16;11.99;91.47
72128;DHT22;60000;51.030;7.024;2023-09-30T02:00:42;11.98;91.50
72128;DHT22;60000;51.030;7.024;2023-09-30T02:03:08;11.98;91.23
72128;DHT22;60000;51.030;7.024;2023-09-30T02:05:33;11.95;91.15
72128;DHT22;60000;51.030;7.024;2023-09-30T02:07:58;11.95;91.22
72128;DHT22;60000;51.030;7.024;2023-09-30T02:10:24;11.92;91.23
72128;DHT22;60000;51.030;7.024;2023-09-30T02:12:49;11.91;91.00
72128;DHT22;60000;51.030;7.024;2023-09-30T02:15:14;11.84;90.91
72128;DHT22;60000;51.030;7.024;2023-09-30T02:17:40;11.79;90.93
72128;DHT22;60000;51.030;7.024;2023-09-30T02:20:10;11.75;90.85
72128;DHT22;60000;51.030;7.024;2023-09-30T02:22:39;11.71;90.83
72128;DHT22;60000;51.030;7.024;2023-09-30T02:25:04;11.67;90.85
72128;DHT22;60000;51.030;7.024;2023-09-30T02:27:32;11.60;90.53
72128;DHT22;60000;51.030;7.024;2023-09-30T02:29:58;11.51;90.49
72128;DHT22;60000;51.030;7.024;2023-09-30T02:32:24;11.51;90.66
72128;DHT22;60000;51.030;7.024;2023-09-30T02:34:49;11.47;90.70
72128;DHT22;60000;51.030;7.024;2023-09-30T02:37:15;11.43;90.86
72128;DHT22;60000;51.030;7.024;2023-09-30T02:39:41;11.37;90.76
72128;DHT22;60000;51.030;7.024;2023-09-30T02:42:06;11.37;91.03
72128;DHT22;60000;51.030;7.024;2023-09-30T02:44:31;11.36;91.14
72128;DHT22;60000;51.030;7.024;2023-09-30T02:46:57;11.37;91.33
72128;DHT22;60000;51.030;7.024;2023-09-30T02:49:22;11.41;91.50
72128;DHT22;60000;51.030;7.024;2023-09-30T02:51:47;11.37;91.54
72128;DHT22;60000;51.030;7.024;2023-09-30T02:54:12;11.41;91.69
72128;DHT22;60000;51.030;7.024;2023-09-30T02:56:40;11.43;91.74
72128;DHT22;60000;51.030;7.024;2023-09-30T02:59:06;11.44;91.85
72128;DHT22;60000;51.030;7.024;2023-09-30T03:01:32;11.41;91.77
72128;DHT22;60000;51.030;7.024;2023-09-30T03:03:57;11.38;91.65
72128;DHT22;60000;51.030;7.024;2023-09-30T03:06:23;11.40;91.75
72128;DHT22;60000;51.030;7.024;2023-09-30T03:08:48;11.40;91.77
72128;DHT22;60000;51.030;7.024;2023-09-30T03:11:13;11.38;91.62
72128;DHT22;60000;51.030;7.024;2023-09-30T03:13:39;11.33;91.71
72128;DHT22;60000;51.030;7.024;2023-09-30T03:16:07;11.31;91.64
72128;DHT22;60000;51.030;7.024;2023-09-30T03:18:33;11.27;91.64
72128;DHT22;60000;51.030;7.024;2023-09-30T03:21:00;11.23;91.62
72128;DHT22;60000;51.030;7.024;2023-09-30T03:23:29;11.23;91.76
72128;DHT22;60000;51.030;7.024;2023-09-30T03:25:59;11.23;91.86
72128;DHT22;60000;51.030;7.024;2023-09-30T03:28:28;11.23;91.79
72128;DHT22;60000;51.030;7.024;2023-09-30T03:30:54;11.19;91.67
72128;DHT22;60000;51.030;7.024;2023-09-30T03:33:19;11.16;91.73
72128;DHT22;60000;51.030;7.024;2023-09-30T03:35:44;11.16;91.80
72128;DHT22;60000;51.030;7.024;2023-09-30T03:38:11;11.17;91.78
72128;DHT22;60000;51.030;7.024;2023-09-30T03:40:38;11.12;91.85
72128;DHT22;60000;51.030;7.024;2023-09-30T03:43:04;11.08;91.78
72128;DHT22;60000;51.030;7.024;2023-09-30T03:45:31;11.06;91.78
72128;DHT22;60000;51.030;7.024;2023-09-30T03:48:00;11.05;91.83
72128;DHT22;60000;51.030;7.024;2023-09-30T03:50:27;11.03;91.96
72128;DHT22;60000;51.030;7.024;2023-09-30T03:53:01;11.03;92.20
72128;DHT22;60000;51.030;7.024;2023-09-30T03:55:26;11.06;92.23
72128;DHT22;60000;51.030;7.024;2023-09-30T03:57:52;11.09;92.43
72128;DHT22;60000;51.030;7.024;2023-09-30T04:00:17;11.10;92.41
72128;DHT22;60000;51.030;7.024;2023-09-30T04:02:44;11.10;92.50
72128;DHT22;60000;51.030;7.024;2023-09-30T04:05:13;11.10;92.45
72128;DHT22;60000;51.030;7.024;2023-09-30T04:07:39;11.09;92.47
72128;DHT22;60000;51.030;7.024;2023-09-30T04:10:07;11.09;92.60
72128;DHT22;60000;51.030;7.024;2023-09-30T04:12:33;11.12;92.63
72128;DHT22;60000;51.030;7.024;2023-09-30T04:14:59;11.08;92.43
72128;DHT22;60000;51.030;7.024;2023-09-30T04:17:24;11.08;92.46
72128;DHT22;60000;51.030;7.024;2023-09-30T04:19:52;11.03;92.49
72128;DHT22;60000;51.030;7.024;2023-09-30T04:22:17;11.03;92.48
72128;DHT22;60000;51.030;7.024;2023-09-30T04:24:44;11.02;92.57
72128;DHT22;60000;51.030;7.024;2023-09-30T04:27:09;11.02;92.65
72128;DHT22;60000;51.030;7.024;2023-09-30T04:29:34;10.99;92.58
72128;DHT22;60000;51.030;7.024;2023-09-30T04:32:00;10.95;92.47
72128;DHT22;60000;51.030;7.024;2023-09-30T04:34:25;10.93;92.59
72128;DHT22;60000;51.030;7.024;2023-09-30T04:36:52;10.93;92.59
72128;DHT22;60000;51.030;7.024;2023-09-30T04:39:18;10.91;92.55
72128;DHT22;60000;51.030;7.024;2023-09-30T04:41:43;10.89;92.50
72128;DHT22;60000;51.030;7.024;2023-09-30T04:44:09;10.88;92.44
72128;DHT22;60000;51.030;7.024;2023-09-30T04:46:36;10.86;92.46
72128;DHT22;60000;51.030;7.024;2023-09-30T04:49:08;10.78;92.45
72128;DHT22;60000;51.030;7.024;2023-09-30T04:51:34;10.76;92.47
72128;DHT22;60000;51.030;7.024;2023-09-30T04:53:59;10.71;92.30
72128;DHT22;60000;51.030;7.024;2023-09-30T04:56:25;10.68;92.31
72128;DHT22;60000;51.030;7.024;2023-09-30T04:58:51;10.65;92.22
72128;DHT22;60000;51.030;7.024;2023-09-30T05:01:16;10.64;92.22
72128;DHT22;60000;51.030;7.024;2023-09-30T05:03:44;10.58;92.10
72128;DHT22;60000;51.030;7.024;2023-09-30T05:06:09;10.48;91.83
72128;DHT22;60000;51.030;7.024;2023-09-30T05:08:35;10.44;91.76
72128;DHT22;60000;51.030;7.024;2023-09-30T05:11:00;10.40;91.94
72128;DHT22;60000;51.030;7.024;2023-09-30T05:13:26;10.36;92.00
72128;DHT22;60000;51.030;7.024;2023-09-30T05:15:52;10.34;92.21
72128;DHT22;60000;51.030;7.024;2023-09-30T05:18:18;10.31;92.16
72128;DHT22;60000;51.030;7.024;2023-09-30T05:20:43;10.31;92.26
72128;DHT22;60000;51.030;7.024;2023-09-30T05:23:09;10.30;92.36
72128;DHT22;60000;51.030;7.024;2023-09-30T05:25:38;10.28;92.38
72128;DHT22;60000;51.030;7.024;2023-09-30T05:28:05;10.28;92.37
72128;DHT22;60000;51.030;7.024;2023-09-30T05:30:32;10.31;92.70
72128;DHT22;60000;51.030;7.024;2023-09-30T05:32:58;10.31;92.90
72128;DHT22;60000;51.030;7.024;2023-09-30T05:35:24;10.31;92.88
72128;DHT22;60000;51.030;7.024;2023-09-30T05:37:49;10.33;92.95
72128;DHT22;60000;51.030;7.024;2023-09-30T05:40:18;10.36;92.99
72128;DHT22;60000;51.030;7.024;2023-09-30T05:42:56;10.37;93.04
72128;DHT22;60000;51.030;7.024;2023-09-30T05:45:32;10.38;93.14
72128;DHT22;60000;51.030;7.024;2023-09-30T05:48:02;10.38;93.10
72128;DHT22;60000;51.030;7.024;2023-09-30T05:50:32;10.40;93.18
72128;DHT22;60000;51.030;7.024;2023-09-30T05:52:59;10.41;93.22
72128;DHT22;60000;51.030;7.024;2023-09-30T05:55:25;10.44;93.35
72128;DHT22;60000;51.030;7.024;2023-09-30T05:57:51;10.45;93.46
72128;DHT22;60000;51.030;7.024;2023-09-30T06:00:19;10.48;93.47
72128;DHT22;60000;51.030;7.024;2023-09-30T06:02:53;10.51;93.47
72128;DHT22;60000;51.030;7.024;2023-09-30T06:05:18;10.55;93.66
72128;DHT22;60000;51.030;7.024;2023-09-30T06:07:46;10.64;93.74
72128;DHT22;60000;51.030;7.024;2023-09-30T06:10:12;10.67;93.75
72128;DHT22;60000;51.030;7.024;2023-09-30T06:12:41;10.75;93.79
72128;DHT22;60000;51.030;7.024;2023-09-30T06:15:07;10.79;93.81
72128;DHT22;60000;51.030;7.024;2023-09-30T06:17:33;10.88;93.88
72128;DHT22;60000;51.030;7.024;2023-09-30T06:19:58;10.89;93.90
72128;DHT22;60000;51.030;7.024;2023-09-30T06:22:32;10.96;93.80
72128;DHT22;60000;51.030;7.024;2023-09-30T06:24:57;10.99;93.71
72128;DHT22;60000;51.030;7.024;2023-09-30T06:27:23;11.03;93.77
72128;DHT22;60000;51.030;7.024;2023-09-30T06:29:48;11.05;93.68
72128;DHT22;60000;51.030;7.024;2023-09-30T06:32:13;11.08;93.66
72128;DHT22;60000;51.030;7.024;2023-09-30T06:34:40;11.15;93.69
72128;DHT22;60000;51.030;7.024;2023-09-30T06:37:06;11.17;93.71
72128;DHT22;60000;51.030;7.024;2023-09-30T06:39:31;11.22;93.83
72128;DHT22;60000;51.030;7.024;2023-09-30T06:41:56;11.27;93.87
72128;DHT22;60000;51.030;7.024;2023-09-30T06:44:21;11.31;93.81
72128;DHT22;60000;51.030;7.024;2023-09-30T06:46:49;11.40;93.90
72128;DHT22;60000;51.030;7.024;2023-09-30T06:49:16;11.44;93.81
72128;DHT22;60000;51.030;7.024;2023-09-30T06:51:41;11.50;93.80
72128;DHT22;60000;51.030;7.024;2023-09-30T06:54:07;11.56;93.78
72128;DHT22;60000;51.030;7.024;2023-09-30T06:56:32;11.61;93.83
72128;DHT22;60000;51.030;7.024;2023-09-30T06:58:57;11.66;93.81
72128;DHT22;60000;51.030;7.024;2023-09-30T07:01:23;11.70;93.88
72128;DHT22;60000;51.030;7.024;2023-09-30T07:03:48;11.79;93.91
72128;DHT22;60000;51.030;7.024;2023-09-30T07:06:22;11.85;93.87
72128;DHT22;60000;51.030;7.024;2023-09-30T07:08:47;11.92;93.99
72128;DHT22;60000;51.030;7.024;2023-09-30T07:11:12;12.01;94.02
72128;DHT22;60000;51.030;7.024;2023-09-30T07:13:38;12.12;94.29
72128;DHT22;60000;51.030;7.024;2023-09-30T07:16:03;12.36;94.88
72128;DHT22;60000;51.030;7.024;2023-09-30T07:18:28;12.61;94.94
72128;DHT22;60000;51.030;7.024;2023-09-30T07:20:54;12.91;94.56
72128;DHT22;60000;51.030;7.024;2023-09-30T07:23:20;13.15;93.98
72128;DHT22;60000;51.030;7.024;2023-09-30T07:25:46;13.41;93.65
72128;DHT22;60000;51.030;7.024;2023-09-30T07:28:11;13.65;93.38
72128;DHT22;60000;51.030;7.024;2023-09-30T07:30:38;13.86;91.64
72128;DHT22;60000;51.030;7.024;2023-09-30T07:33:04;14.00;91.59
72128;DHT22;60000;51.030;7.024;2023-09-30T07:35:29;14.24;90.51
72128;DHT22;60000;51.030;7.024;2023-09-30T07:37:54;14.37;89.70
72128;DHT22;60000;51.030;7.024;2023-09-30T07:40:20;14.45;89.09
72128;DHT22;60000;51.030;7.024;2023-09-30T07:42:46;14.62;88.62
72128;DHT22;60000;51.030;7.024;2023-09-30T07:45:12;14.79;88.92
72128;DHT22;60000;51.030;7.024;2023-09-30T07:47:43;14.88;86.69
72128;DHT22;60000;51.030;7.024;2023-09-30T07:50:08;14.89;85.91
72128;DHT22;60000;51.030;7.024;2023-09-30T07:52:35;15.09;86.42
72128;DHT22;60000;51.030;7.024;2023-09-30T07:55:01;15.29;85.56
72128;DHT22;60000;51.030;7.024;2023-09-30T07:57:26;15.46;85.53
72128;DHT22;60000;51.030;7.024;2023-09-30T07:59:51;15.77;85.77
72128;DHT22;60000;51.030;7.024;2023-09-30T08:02:17;15.94;83.61
72128;DHT22;60000;51.030;7.024;2023-09-30T08:04:45;15.97;82.08
72128;DHT22;60000;51.030;7.024;2023-09-30T08:07:11;16.04;81.85
72128;DHT22;60000;51.030;7.024;2023-09-30T08:09:36;16.09;80.59
72128;DHT22;60000;51.030;7.024;2023-09-30T08:12:02;16.32;81.66
72128;DHT22;60000;51.030;7.024;2023-09-30T08:14:28;16.45;80.20
72128;DHT22;60000;51.030;7.024;2023-09-30T08:16:53;16.66;79.65
72128;DHT22;60000;51.030;7.024;2023-09-30T08:19:18;16.77;78.57
72128;DHT22;60000;51.030;7.024;2023-09-30T08:21:45;17.08;79.62
72128;DHT22;60000;51.030;7.024;2023-09-30T08:24:11;17.43;78.69
72128;DHT22;60000;51.030;7.024;2023-09-30T08:26:36;17.58;76.87
72128;DHT22;60000;51.030;7.024;2023-09-30T08:29:03;17.59;74.94
72128;DHT22;60000;51.030;7.024;2023-09-30T08:31:28;17.77;75.95
72128;DHT22;60000;51.030;7.024;2023-09-30T08:33:54;17.89;75.68
72128;DHT22;60000;51.030;7.024;2023-09-30T08:36:19;18.04;74.59
72128;DHT22;60000;51.030;7.024;2023-09-30T08:38:44;17.93;72.93
72128;DHT22;60000;51.030;7.024;2023-09-30T08:41:10;18.13;74.82
72128;DHT22;60000;51.030;7.024;2023-09-30T08:43:39;18.18;72.68
72128;DHT22;60000;51.030;7.024;2023-09-30T08:46:06;18.33;73.08
72128;DHT22;60000;51.030;7.024;2023-09-30T08:48:32;18.71;73.82
72128;DHT22;60000;51.030;7.024;2023-09-30T08:50:59;18.98;72.40
72128;DHT22;60000;51.030;7.024;2023-09-30T08:53:25;19.12;71.38
72128;DHT22;60000;51.030;7.024;2023-09-30T08:55:54;19.20;69.80
72128;DHT22;60000;51.030;7.024;2023-09-30T08:58:23;19.47;71.19
72128;DHT22;60000;51.030;7.024;2023-09-30T09:00:49;19.67;69.27
72128;DHT22;60000;51.030;7.024;2023-09-30T09:03:15;19.84;69.49
72128;DHT22;60000;51.030;7.024;2023-09-30T09:05:40;19.64;65.27
72128;DHT22;60000;51.030;7.024;2023-09-30T09:08:05;19.73;67.73
72128;DHT22;60000;51.030;7.024;2023-09-30T09:10:31;19.82;67.96
72128;DHT22;60000;51.030;7.024;2023-09-30T09:12:58;20.01;67.20
72128;DHT22;60000;51.030;7.024;2023-09-30T09:15:25;20.15;66.39
72128;DHT22;60000;51.030;7.024;2023-09-30T09:17:51;20.25;66.36
72128;DHT22;60000;51.030;7.024;2023-09-30T09:20:19;20.36;67.48
72128;DHT22;60000;51.030;7.024;2023-09-30T09:22:50;20.57;66.22
72128;DHT22;60000;51.030;7.024;2023-09-30T09:25:17;20.46;65.31
72128;DHT22;60000;51.030;7.024;2023-09-30T09:27:43;20.57;65.03
72128;DHT22;60000;51.030;7.024;2023-09-30T09:33:01;20.73;64.31
72128;DHT22;60000;51.030;7.024;2023-09-30T09:35:27;20.69;63.83
72128;DHT22;60000;51.030;7.024;2023-09-30T09:40:26;20.72;63.75
72128;DHT22;60000;51.030;7.024;2023-09-30T09:42:51;20.94;63.42
72128;DHT22;60000;51.030;7.024;2023-09-30T09:45:24;21.03;63.29
72128;DHT22;60000;51.030;7.024;2023-09-30T09:47:50;20.91;62.28
72128;DHT22;60000;51.030;7.024;2023-09-30T09:50:17;20.93;62.30
72128;DHT22;60000;51.030;7.024;2023-09-30T09:52:44;20.77;63.17
72128;DHT22;60000;51.030;7.024;2023-09-30T09:55:10;20.77;62.17
72128;DHT22;60000;51.030;7.024;2023-09-30T09:57:37;20.95;61.81
72128;DHT22;60000;51.030;7.024;2023-09-30T10:00:03;21.07;62.18
72128;DHT22;60000;51.030;7.024;2023-09-30T10:02:32;21.00;60.33
72128;DHT22;60000;51.030;7.024;2023-09-30T10:04:57;20.69;61.48
72128;DHT22;60000;51.030;7.024;2023-09-30T10:07:29;20.33;61.26
72128;DHT22;60000;51.030;7.024;2023-09-30T10:09:55;20.37;62.54
72128;DHT22;60000;51.030;7.024;2023-09-30T10:12:25;20.63;62.50
72128;DHT22;60000;51.030;7.024;2023-09-30T10:14:52;20.64;62.03
72128;DHT22;60000;51.030;7.024;2023-09-30T10:17:17;20.76;61.91
72128;DHT22;60000;51.030;7.024;2023-09-30T10:20:05;21.11;62.71
72128;DHT22;60000;51.030;7.024;2023-09-30T10:22:34;21.05;60.37
72128;DHT22;60000;51.030;7.024;2023-09-30T10:25:01;21.10;60.76
72128;DHT22;60000;51.030;7.024;2023-09-30T10:27:29;21.11;60.77
72128;DHT22;60000;51.030;7.024;2023-09-30T10:35:20;21.56;57.93
72128;DHT22;60000;51.030;7.024;2023-09-30T10:37:47;21.55;58.37
72128;DHT22;60000;51.030;7.024;2023-09-30T10:40:29;21.69;58.22
72128;DHT22;60000;51.030;7.024;2023-09-30T10:42:55;21.72;57.89
72128;DHT22;60000;51.030;7.024;2023-09-30T10:51:14;22.29;56.51
72128;DHT22;60000;51.030;7.024;2023-09-30T10:53:53;22.13;56.57
72128;DHT22;60000;51.030;7.024;2023-09-30T10:56:22;22.03;55.41
72128;DHT22;60000;51.030;7.024;2023-09-30T10:58:50;22.17;55.81
72128;DHT22;60000;51.030;7.024;2023-09-30T11:01:18;22.41;55.42
72128;DHT22;60000;51.030;7.024;2023-09-30T11:03:45;22.57;55.13
72128;DHT22;60000;51.030;7.024;2023-09-30T11:06:14;22.40;53.32
72128;DHT22;60000;51.030;7.024;2023-09-30T11:08:45;22.36;55.01
72128;DHT22;60000;51.030;7.024;2023-09-30T11:11:12;22.11;54.95
72128;DHT22;60000;51.030;7.024;2023-09-30T11:13:38;22.20;55.17
72128;DHT22;60000;51.030;7.024;2023-09-30T11:16:04;22.10;55.26
72128;DHT22;60000;51.030;7.024;2023-09-30T11:18:30;21.92;55.57
72128;DHT22;60000;51.030;7.024;2023-09-30T11:21:04;21.79;55.21
72128;DHT22;60000;51.030;7.024;2023-09-30T11:23:31;21.79;56.01
72128;DHT22;60000;51.030;7.024;2023-09-30T11:25:56;21.80;56.17
72128;DHT22;60000;51.030;7.024;2023-09-30T11:28:22;21.90;56.45
72128;DHT22;60000;51.030;7.024;2023-09-30T11:30:59;21.99;56.60
72128;DHT22;60000;51.030;7.024;2023-09-30T11:33:25;22.11;55.55
72128;DHT22;60000;51.030;7.024;2023-09-30T11:36:01;22.07;53.88
72128;DHT22;60000;51.030;7.024;2023-09-30T11:38:28;21.96;52.81
72128;DHT22;60000;51.030;7.024;2023-09-30T11:41:00;21.65;53.70
72128;DHT22;60000;51.030;7.024;2023-09-30T11:43:28;21.51;53.95
72128;DHT22;60000;51.030;7.024;2023-09-30T11:46:10;21.42;56.03
72128;DHT22;60000;51.030;7.024;2023-09-30T11:48:37;21.38;56.32
72128;DHT22;60000;51.030;7.024;2023-09-30T11:51:02;21.42;56.58
72128;DHT22;60000;51.030;7.024;2023-09-30T11:53:35;21.39;56.07
72128;DHT22;60000;51.030;7.024;2023-09-30T11:56:04;21.30;55.76
72128;DHT22;60000;51.030;7.024;2023-09-30T11:58:29;21.31;56.97
72128;DHT22;60000;51.030;7.024;2023-09-30T12:01:00;21.20;56.11
72128;DHT22;60000;51.030;7.024;2023-09-30T12:03:26;21.18;56.39
72128;DHT22;60000;51.030;7.024;2023-09-30T12:05:53;20.94;56.05
72128;DHT22;60000;51.030;7.024;2023-09-30T12:08:20;20.79;56.02
72128;DHT22;60000;51.030;7.024;2023-09-30T12:10:46;20.59;56.38
72128;DHT22;60000;51.030;7.024;2023-09-30T12:13:11;20.50;57.41
72128;DHT22;60000;51.030;7.024;2023-09-30T12:15:37;20.45;57.17
72128;DHT22;60000;51.030;7.024;2023-09-30T12:18:02;20.37;56.90
72128;DHT22;60000;51.030;7.024;2023-09-30T12:20:28;20.33;57.15
72128;DHT22;60000;51.030;7.024;2023-09-30T12:22:53;20.28;57.02
72128;DHT22;60000;51.030;7.024;2023-09-30T12:25:19;20.39;58.07
72128;DHT22;60000;51.030;7.024;2023-09-30T12:27:47;20.39;57.05
72128;DHT22;60000;51.030;7.024;2023-09-30T12:30:12;20.37;56.82
72128;DHT22;60000;51.030;7.024;2023-09-30T12:32:39;20.36;56.20
72128;DHT22;60000;51.030;7.024;2023-09-30T12:35:05;20.36;56.39
72128;DHT22;60000;51.030;7.024;2023-09-30T12:37:30;20.43;56.53
72128;DHT22;60000;51.030;7.024;2023-09-30T12:39:55;20.42;56.14
72128;DHT22;60000;51.030;7.024;2023-09-30T12:42:21;20.42;56.60
72128;DHT22;60000;51.030;7.024;2023-09-30T12:44:46;20.37;54.73
72128;DHT22;60000;51.030;7.024;2023-09-30T12:47:11;20.33;55.61
72128;DHT22;60000;51.030;7.024;2023-09-30T12:49:38;20.35;55.73
72128;DHT22;60000;51.030;7.024;2023-09-30T12:52:03;20.32;55.92
72128;DHT22;60000;51.030;7.024;2023-09-30T12:54:29;20.33;55.96
72128;DHT22;60000;51.030;7.024;2023-09-30T12:56:54;20.35;56.39
72128;DHT22;60000;51.030;7.024;2023-09-30T12:59:19;20.36;56.58
72128;DHT22;60000;51.030;7.024;2023-09-30T13:01:49;20.47;57.21
72128;DHT22;60000;51.030;7.024;2023-09-30T13:04:15;20.59;57.72
72128;DHT22;60000;51.030;7.024;2023-09-30T13:06:40;20.62;56.46
72128;DHT22;60000;51.030;7.024;2023-09-30T13:09:06;20.70;56.88
72128;DHT22;60000;51.030;7.024;2023-09-30T13:11:33;20.70;56.61
72128;DHT22;60000;51.030;7.024;2023-09-30T13:13:59;20.56;54.35
72128;DHT22;60000;51.030;7.024;2023-09-30T13:16:24;20.66;55.29
72128;DHT22;60000;51.030;7.024;2023-09-30T13:18:50;20.69;55.41
72128;DHT22;60000;51.030;7.024;2023-09-30T13:21:17;20.76;55.67
72128;DHT22;60000;51.030;7.024;2023-09-30T13:23:43;20.79;55.41
72128;DHT22;60000;51.030;7.024;2023-09-30T13:26:08;20.77;54.57
72128;DHT22;60000;51.030;7.024;2023-09-30T13:28:34;20.79;55.01
72128;DHT22;60000;51.030;7.024;2023-09-30T13:30:59;20.79;55.20
72128;DHT22;60000;51.030;7.024;2023-09-30T13:33:24;20.72;53.67
72128;DHT22;60000;51.030;7.024;2023-09-30T13:35:50;20.85;54.17
72128;DHT22;60000;51.030;7.024;2023-09-30T13:38:15;20.90;54.20
72128;DHT22;60000;51.030;7.024;2023-09-30T13:40:44;20.97;54.38
72128;DHT22;60000;51.030;7.024;2023-09-30T13:43:11;20.98;54.80
72128;DHT22;60000;51.030;7.024;2023-09-30T13:45:36;21.00;52.96
72128;DHT22;60000;51.030;7.024;2023-09-30T13:48:02;20.88;50.83
72128;DHT22;60000;51.030;7.024;2023-09-30T13:50:27;20.93;52.38
72128;DHT22;60000;51.030;7.024;2023-09-30T13:52:53;20.87;52.29
72128;DHT22;60000;51.030;7.024;2023-09-30T13:55:18;20.76;51.94
72128;DHT22;60000;51.030;7.024;2023-09-30T13:57:47;20.72;53.25
72128;DHT22;60000;51.030;7.024;2023-09-30T14:00:14;20.63;53.92
72128;DHT22;60000;51.030;7.024;2023-09-30T14:05:07;20.53;54.89
72128;DHT22;60000;51.030;7.024;2023-09-30T14:07:37;20.49;54.87
72128;DHT22;60000;51.030;7.024;2023-09-30T14:10:03;20.39;54.41
72128;DHT22;60000;51.030;7.024;2023-09-30T14:12:29;20.30;54.28
72128;DHT22;60000;51.030;7.024;2023-09-30T14:14:54;20.15;54.48
72128;DHT22;60000;51.030;7.024;2023-09-30T14:17:20;20.06;54.34
72128;DHT22;60000;51.030;7.024;2023-09-30T14:19:45;20.01;55.08
72128;DHT22;60000;51.030;7.024;2023-09-30T14:22:10;19.95;55.40
72128;DHT22;60000;51.030;7.024;2023-09-30T14:24:37;19.92;55.93
72128;DHT22;60000;51.030;7.024;2023-09-30T14:27:03;19.91;56.01
72128;DHT22;60000;51.030;7.024;2023-09-30T14:29:29;19.91;56.49
72128;DHT22;60000;51.030;7.024;2023-09-30T14:31:54;19.88;56.90
72128;DHT22;60000;51.030;7.024;2023-09-30T14:34:20;19.89;57.46
72128;DHT22;60000;51.030;7.024;2023-09-30T14:36:45;19.82;56.40
72128;DHT22;60000;51.030;7.024;2023-09-30T14:39:11;19.75;56.30
72128;DHT22;60000;51.030;7.024;2023-09-30T14:41:36;19.70;56.00
72128;DHT22;60000;51.030;7.024;2023-09-30T14:44:02;19.71;56.87
72128;DHT22;60000;51.030;7.024;2023-09-30T14:46:33;19.74;56.93
72128;DHT22;60000;51.030;7.024;2023-09-30T14:48:59;19.78;57.36
72128;DHT22;60000;51.030;7.024;2023-09-30T14:51:25;19.85;57.29
72128;DHT22;60000;51.030;7.024;2023-09-30T14:53:50;19.81;56.44
72128;DHT22;60000;51.030;7.024;2023-09-30T14:56:16;19.77;56.45
72128;DHT22;60000;51.030;7.024;2023-09-30T14:58:42;19.75;56.55
72128;DHT22;60000;51.030;7.024;2023-09-30T15:01:08;19.77;56.99
72128;DHT22;60000;51.030;7.024;2023-09-30T15:03:33;19.77;56.75
72128;DHT22;60000;51.030;7.024;2023-09-30T15:06:02;19.73;56.78
72128;DHT22;60000;51.030;7.024;2023-09-30T15:08:27;19.73;57.80
72128;DHT22;60000;51.030;7.024;2023-09-30T15:10:52;19.68;57.25
72128;DHT22;60000;51.030;7.024;2023-09-30T15:13:19;19.68;57.47
72128;DHT22;60000;51.030;7.024;2023-09-30T15:15:45;19.67;57.84
72128;DHT22;60000;51.030;7.024;2023-09-30T15:18:10;19.67;57.43
72128;DHT22;60000;51.030;7.024;2023-09-30T15:23:28;19.64;57.51
72128;DHT22;60000;51.030;7.024;2023-09-30T15:25:57;19.53;56.92
72128;DHT22;60000;51.030;7.024;2023-09-30T15:28:22;19.49;57.23
72128;DHT22;60000;51.030;7.024;2023-09-30T15:30:50;19.44;57.54
72128;DHT22;60000;51.030;7.024;2023-09-30T15:33:15;19.41;57.76
72128;DHT22;60000;51.030;7.024;2023-09-30T15:35:43;19.36;58.11
72128;DHT22;60000;51.030;7.024;2023-09-30T15:38:08;19.28;58.12
72128;DHT22;60000;51.030;7.024;2023-09-30T15:43:58;19.19;58.95
72128;DHT22;60000;51.030;7.024;2023-09-30T15:46:25;19.19;59.33
72128;DHT22;60000;51.030;7.024;2023-09-30T15:48:50;19.12;59.44
72128;DHT22;60000;51.030;7.024;2023-09-30T15:51:15;19.07;59.55